Time;durP1;ratioP1;P1;durP2;ratioP2;P2;SDS_P1;SDS_P2;PMS_P1;PMS_P2;Temp;Humidity;BMP_temperature;BMP_pressure;BME280_temperature;BME280_humidity;BME280_pressure;Samples;Min_cycle;Max_cycle;Signal;HPM_P1;HPM_P2
2021/05/28 00:00:59;;;;;;;0.30;0.30;;;16.80;99.90;;;;;;5065870;28;20023;-64
2021/05/28 00:03:25;;;;;;;0.20;0.20;;;16.80;99.90;;;;;;5068073;28;20108;-65
2021/05/28 00:05:51;;;;;;;0.40;0.40;;;16.80;99.90;;;;;;5065946;28;20029;-64
2021/05/28 00:08:17;;;;;;;0.43;0.43;;;16.80;99.90;;;;;;5067499;28;20025;-64
2021/05/28 00:10:43;;;;;;;0.30;0.30;;;16.60;99.90;;;;;;5065128;28;20289;-64
2021/05/28 00:13:10;;;;;;;0.50;0.50;;;16.60;99.90;;;;;;5067313;28;20020;-64
2021/05/28 00:15:35;;;;;;;0.60;0.50;;;16.70;99.90;;;;;;5065892;28;20039;-64
2021/05/28 00:18:02;;;;;;;0.40;0.40;;;16.70;99.90;;;;;;5065004;28;20499;-65
2021/05/28 00:20:27;;;;;;;0.70;0.50;;;16.60;99.90;;;;;;5066708;28;20031;-64
2021/05/28 00:22:53;;;;;;;0.60;0.50;;;16.50;99.90;;;;;;5067524;28;20412;-65
2021/05/28 00:25:19;;;;;;;0.80;0.63;;;16.30;99.90;;;;;;5067870;28;20040;-65
2021/05/28 00:27:46;;;;;;;0.45;0.40;;;16.30;99.90;;;;;;5066466;28;20058;-65
2021/05/28 00:30:13;;;;;;;0.50;0.50;;;16.20;99.90;;;;;;5066098;28;20515;-65
2021/05/28 00:32:38;;;;;;;0.90;0.60;;;16.10;99.90;;;;;;5066545;28;20017;-65
2021/05/28 00:35:06;;;;;;;0.93;0.60;;;16.00;99.90;;;;;;5064907;28;20024;-65
2021/05/28 00:37:31;;;;;;;1.05;0.60;;;16.00;99.90;;;;;;5064442;28;20413;-64
2021/05/28 00:39:57;;;;;;;0.68;0.60;;;15.80;99.90;;;;;;5066777;28;20032;-65
2021/05/28 00:42:22;;;;;;;0.70;0.68;;;15.60;99.90;;;;;;5067277;28;20060;-64
2021/05/28 00:44:48;;;;;;;0.50;0.50;;;15.60;99.90;;;;;;5066261;28;20031;-64
2021/05/28 00:47:14;;;;;;;0.55;0.50;;;15.70;99.90;;;;;;5065086;28;20033;-64
2021/05/28 00:49:40;;;;;;;0.40;0.40;;;15.70;99.90;;;;;;5065879;28;20032;-64
2021/05/28 00:52:06;;;;;;;0.75;0.55;;;15.70;99.90;;;;;;5066385;28;20036;-64
2021/05/28 00:54:32;;;;;;;0.50;0.50;;;15.60;99.90;;;;;;5065712;28;20099;-64
2021/05/28 00:56:59;;;;;;;0.40;0.40;;;15.60;99.90;;;;;;5064785;28;20347;-64
2021/05/28 00:59:25;;;;;;;0.40;0.40;;;15.70;99.90;;;;;;5065037;28;20025;-64
2021/05/28 01:01:52;;;;;;;0.40;0.40;;;15.70;99.90;;;;;;5066544;28;20029;-64
2021/05/28 01:04:17;;;;;;;0.77;0.52;;;15.60;99.90;;;;;;5066053;28;20568;-64
2021/05/28 01:06:43;;;;;;;0.52;0.45;;;15.50;99.90;;;;;;5065498;28;20032;-64
2021/05/28 01:09:10;;;;;;;1.30;0.55;;;15.30;99.90;;;;;;5066490;28;20099;-64
2021/05/28 01:11:37;;;;;;;0.40;0.40;;;15.30;99.90;;;;;;5064483;28;20032;-64
2021/05/28 01:14:04;;;;;;;0.45;0.40;;;15.30;99.90;;;;;;5065519;28;20219;-64
2021/05/28 01:16:29;;;;;;;0.63;0.60;;;15.30;99.90;;;;;;5065083;28;20024;-64
2021/05/28 01:18:58;;;;;;;1.10;0.80;;;15.30;99.90;;;;;;5065357;28;20036;-64
2021/05/28 01:21:24;;;;;;;0.50;0.47;;;15.20;99.90;;;;;;5066323;28;20021;-64
2021/05/28 01:23:50;;;;;;;0.40;0.40;;;15.30;99.90;;;;;;5065260;28;20388;-64
2021/05/28 01:26:15;;;;;;;0.52;0.52;;;15.30;99.90;;;;;;5065825;28;20038;-65
2021/05/28 01:28:41;;;;;;;0.52;0.52;;;15.30;99.90;;;;;;5063728;28;20403;-65
2021/05/28 01:31:07;;;;;;;0.63;0.57;;;15.30;99.90;;;;;;5065571;28;20031;-65
2021/05/28 01:33:33;;;;;;;0.98;0.50;;;15.20;99.90;;;;;;5065555;28;20119;-64
2021/05/28 01:36:00;;;;;;;0.63;0.57;;;15.00;99.90;;;;;;5065246;28;20590;-65
2021/05/28 01:38:26;;;;;;;0.50;0.50;;;15.00;99.90;;;;;;5064274;28;20505;-64
2021/05/28 01:40:53;;;;;;;1.08;0.50;;;15.00;99.90;;;;;;5066263;28;20020;-64
2021/05/28 01:43:19;;;;;;;0.50;0.50;;;15.00;99.90;;;;;;5065345;28;20028;-64
2021/05/28 01:45:46;;;;;;;0.70;0.60;;;15.00;99.90;;;;;;5063680;28;20024;-64
2021/05/28 01:48:13;;;;;;;0.77;0.60;;;15.00;99.90;;;;;;5065125;28;20040;-64
2021/05/28 01:50:45;;;;;;;0.40;0.40;;;15.00;99.90;;;;;;5065291;28;20375;-64
2021/05/28 01:53:17;;;;;;;0.80;0.50;;;15.00;99.90;;;;;;5065324;28;20199;-64
2021/05/28 01:55:44;;;;;;;0.38;0.38;;;14.90;99.90;;;;;;5062961;28;20036;-64
2021/05/28 01:58:12;;;;;;;0.55;0.50;;;15.10;99.90;;;;;;5064337;28;20411;-64
2021/05/28 02:00:40;;;;;;;0.40;0.40;;;15.00;99.90;;;;;;5062434;28;20035;-64
2021/05/28 02:03:06;;;;;;;0.70;0.43;;;14.90;99.90;;;;;;5065331;28;20531;-64
2021/05/28 02:05:33;;;;;;;1.10;0.73;;;14.80;99.90;;;;;;5063211;28;20021;-64
2021/05/28 02:08:00;;;;;;;0.98;0.70;;;14.80;99.90;;;;;;5064828;28;20086;-64
2021/05/28 02:10:26;;;;;;;1.05;0.73;;;14.80;99.90;;;;;;5064745;28;20490;-64
2021/05/28 02:12:52;;;;;;;0.65;0.50;;;14.80;99.90;;;;;;5065412;28;20041;-65
2021/05/28 02:15:19;;;;;;;0.45;0.45;;;14.80;99.90;;;;;;5062636;28;20421;-64
2021/05/28 02:17:45;;;;;;;0.50;0.47;;;14.80;99.90;;;;;;5064441;28;20071;-64
2021/05/28 02:20:11;;;;;;;0.70;0.70;;;14.70;99.90;;;;;;5064975;28;20056;-64
2021/05/28 02:22:38;;;;;;;0.50;0.50;;;14.70;99.90;;;;;;5064566;28;20036;-64
2021/05/28 02:25:05;;;;;;;0.50;0.45;;;14.60;99.90;;;;;;5065332;28;20595;-64
2021/05/28 02:27:33;;;;;;;0.85;0.80;;;14.70;99.90;;;;;;5064400;28;20024;-65
2021/05/28 02:29:59;;;;;;;0.50;0.30;;;14.70;99.90;;;;;;5064931;28;20074;-64
2021/05/28 02:32:25;;;;;;;0.40;0.40;;;14.90;99.90;;;;;;5065030;28;20411;-65
2021/05/28 02:34:51;;;;;;;1.58;0.60;;;14.90;99.90;;;;;;5063250;28;20113;-65
2021/05/28 02:37:17;;;;;;;1.38;0.50;;;15.00;99.90;;;;;;5063287;28;20044;-65
2021/05/28 02:39:43;;;;;;;0.75;0.50;;;14.70;99.90;;;;;;5064395;28;20103;-65
2021/05/28 02:42:09;;;;;;;1.10;0.40;;;14.60;99.90;;;;;;5062814;28;20471;-65
2021/05/28 02:44:35;;;;;;;0.30;0.30;;;14.60;99.90;;;;;;5064710;28;20115;-65
2021/05/28 02:47:01;;;;;;;0.32;0.32;;;14.60;99.90;;;;;;5064610;28;20041;-65
2021/05/28 02:49:27;;;;;;;0.57;0.57;;;14.60;99.90;;;;;;5062893;28;20028;-64
2021/05/28 02:51:53;;;;;;;0.40;0.30;;;14.60;99.90;;;;;;5065468;28;20020;-65
2021/05/28 02:54:19;;;;;;;0.63;0.40;;;14.60;99.90;;;;;;5064417;28;20533;-64
2021/05/28 02:56:44;;;;;;;0.63;0.50;;;14.60;99.90;;;;;;5064112;28;20028;-64
2021/05/28 02:59:11;;;;;;;0.40;0.40;;;14.70;99.90;;;;;;5066069;28;20549;-64
2021/05/28 03:01:37;;;;;;;1.75;0.55;;;14.70;99.90;;;;;;5067646;28;20025;-64
2021/05/28 03:04:03;;;;;;;0.80;0.68;;;14.50;99.90;;;;;;5068284;28;20028;-64
2021/05/28 03:06:30;;;;;;;0.60;0.50;;;14.30;99.90;;;;;;5068171;28;20029;-64
2021/05/28 03:08:56;;;;;;;0.50;0.50;;;14.20;99.90;;;;;;5068457;28;20558;-64
2021/05/28 03:11:21;;;;;;;0.40;0.40;;;14.20;99.90;;;;;;5068714;28;20033;-65
2021/05/28 03:13:47;;;;;;;0.70;0.43;;;14.10;99.90;;;;;;5068017;28;20060;-65
2021/05/28 03:16:13;;;;;;;0.35;0.35;;;14.10;99.90;;;;;;5067081;28;20410;-65
2021/05/28 03:18:54;;;;;;;0.60;0.38;;;14.00;99.90;;;;;;5068092;28;20640;-65
2021/05/28 03:23:56;;;;;;;0.43;0.43;;;14.10;99.90;;;;;;5067397;28;20035;-64
2021/05/28 03:26:23;;;;;;;0.63;0.47;;;14.10;99.90;;;;;;5067762;28;20032;-64
2021/05/28 03:28:51;;;;;;;0.52;0.50;;;14.30;99.90;;;;;;5067355;28;20021;-65
2021/05/28 03:31:17;;;;;;;0.55;0.45;;;14.30;99.90;;;;;;5068038;28;20029;-64
2021/05/28 03:33:43;;;;;;;0.40;0.38;;;14.20;99.90;;;;;;5067528;28;20029;-64
2021/05/28 03:36:10;;;;;;;0.52;0.50;;;14.20;99.90;;;;;;5067997;28;20028;-64
2021/05/28 03:38:36;;;;;;;0.40;0.40;;;14.10;99.90;;;;;;5067361;28;20029;-65
2021/05/28 03:41:03;;;;;;;0.63;0.52;;;14.10;99.90;;;;;;5067946;28;20039;-65
2021/05/28 03:43:29;;;;;;;0.68;0.50;;;14.00;99.90;;;;;;5067649;28;20032;-65
2021/05/28 03:45:55;;;;;;;0.68;0.55;;;14.00;99.90;;;;;;5067965;28;20029;-65
2021/05/28 03:48:20;;;;;;;1.33;0.85;;;13.80;99.90;;;;;;5067849;28;20031;-65
2021/05/28 03:50:46;;;;;;;0.68;0.40;;;13.80;99.90;;;;;;5064925;28;20029;-64
2021/05/28 03:53:12;;;;;;;0.70;0.70;;;13.80;99.90;;;;;;5067558;28;20443;-65
2021/05/28 03:55:38;;;;;;;0.85;0.60;;;13.90;99.90;;;;;;5065000;28;20556;-64
2021/05/28 03:58:05;;;;;;;0.60;0.40;;;13.80;99.90;;;;;;5065647;28;20059;-64
2021/05/28 04:00:31;;;;;;;1.30;0.60;;;13.80;99.90;;;;;;5066947;28;20045;-64
2021/05/28 04:02:57;;;;;;;0.50;0.50;;;13.90;99.90;;;;;;5067021;28;20477;-64
2021/05/28 04:05:23;;;;;;;0.32;0.30;;;13.90;99.90;;;;;;5067798;28;20052;-64
2021/05/28 04:07:50;;;;;;;0.68;0.50;;;13.80;99.90;;;;;;5066881;28;20024;-64
2021/05/28 04:10:16;;;;;;;0.50;0.50;;;13.70;99.90;;;;;;5066128;28;20032;-65
2021/05/28 04:12:42;;;;;;;0.60;0.50;;;13.60;99.90;;;;;;5066662;28;20043;-65
2021/05/28 04:15:10;;;;;;;0.30;0.30;;;13.60;99.90;;;;;;5066661;28;20028;-65
2021/05/28 04:17:36;;;;;;;0.40;0.40;;;13.60;99.90;;;;;;5066484;28;20103;-65
2021/05/28 04:20:04;;;;;;;0.40;0.40;;;13.70;99.90;;;;;;5066445;28;20115;-65
2021/05/28 04:22:30;;;;;;;0.75;0.47;;;13.70;99.90;;;;;;5066572;28;20406;-64
2021/05/28 04:24:57;;;;;;;1.02;0.60;;;13.60;99.90;;;;;;5067243;28;20048;-65
2021/05/28 04:27:23;;;;;;;0.32;0.32;;;13.70;99.90;;;;;;5067676;28;20403;-65
2021/05/28 04:29:48;;;;;;;0.50;0.50;;;13.90;99.90;;;;;;5065895;28;20025;-64
2021/05/28 04:32:16;;;;;;;1.10;0.50;;;14.10;99.90;;;;;;5066715;28;20036;-64
2021/05/28 04:34:43;;;;;;;0.70;0.70;;;14.20;99.90;;;;;;5065335;28;20020;-65
2021/05/28 04:37:09;;;;;;;0.50;0.50;;;14.10;99.90;;;;;;5066503;28;20021;-64
2021/05/28 04:39:35;;;;;;;0.88;0.70;;;14.00;99.90;;;;;;5066631;28;20021;-64
2021/05/28 04:42:02;;;;;;;0.50;0.50;;;14.00;99.90;;;;;;5066794;28;20090;-65
2021/05/28 04:44:28;;;;;;;0.60;0.60;;;14.00;99.90;;;;;;5066383;28;20035;-64
2021/05/28 04:46:54;;;;;;;0.77;0.50;;;13.90;99.90;;;;;;5066347;28;20547;-64
2021/05/28 04:49:21;;;;;;;0.45;0.45;;;14.00;99.90;;;;;;5066909;28;20480;-64
2021/05/28 04:51:48;;;;;;;0.50;0.50;;;13.90;99.90;;;;;;5065057;28;20039;-64
2021/05/28 04:54:14;;;;;;;0.63;0.63;;;13.90;99.90;;;;;;5065193;28;20024;-64
2021/05/28 04:56:41;;;;;;;0.50;0.50;;;14.00;99.90;;;;;;5065293;28;20040;-64
2021/05/28 04:59:06;;;;;;;0.50;0.50;;;14.00;99.90;;;;;;5065208;28;20036;-64
2021/05/28 05:01:33;;;;;;;0.75;0.60;;;14.00;99.90;;;;;;5062672;28;20073;-64
2021/05/28 05:03:58;;;;;;;0.40;0.40;;;14.10;99.90;;;;;;5062926;28;20108;-65
2021/05/28 05:06:24;;;;;;;0.40;0.40;;;14.10;99.90;;;;;;5066823;28;20107;-64
2021/05/28 05:08:50;;;;;;;0.82;0.65;;;14.30;99.90;;;;;;5064866;28;20024;-64
2021/05/28 05:11:15;;;;;;;0.65;0.60;;;14.10;99.90;;;;;;5062164;28;20036;-64
2021/05/28 05:13:41;;;;;;;0.82;0.63;;;14.10;99.90;;;;;;5064690;28;20410;-65
2021/05/28 05:16:07;;;;;;;0.60;0.50;;;14.20;99.90;;;;;;5065056;28;20030;-65
2021/05/28 05:18:32;;;;;;;0.60;0.60;;;14.30;99.90;;;;;;5064115;28;20032;-65
2021/05/28 05:20:58;;;;;;;1.95;0.60;;;14.20;99.90;;;;;;5064955;28;20502;-65
2021/05/28 05:23:23;;;;;;;1.17;0.50;;;14.10;99.90;;;;;;5062657;28;20028;-64
2021/05/28 05:25:49;;;;;;;0.50;0.50;;;14.30;99.90;;;;;;5065613;28;20025;-64
2021/05/28 05:28:15;;;;;;;0.75;0.73;;;14.30;99.90;;;;;;5065569;28;20056;-65
2021/05/28 05:30:40;;;;;;;0.80;0.60;;;14.40;99.90;;;;;;5065835;28;20033;-65
2021/05/28 05:33:07;;;;;;;1.08;0.77;;;14.40;99.90;;;;;;5065658;28;20529;-64
2021/05/28 05:35:33;;;;;;;0.60;0.50;;;14.40;99.90;;;;;;5065279;28;20067;-64
2021/05/28 05:38:00;;;;;;;0.80;0.60;;;14.40;99.90;;;;;;5065374;28;20059;-64
2021/05/28 05:40:26;;;;;;;1.05;0.60;;;14.50;99.90;;;;;;5065582;28;20032;-64
2021/05/28 05:42:51;;;;;;;0.80;0.60;;;14.60;99.90;;;;;;5065704;28;20033;-64
2021/05/28 05:45:17;;;;;;;1.33;0.60;;;14.40;99.90;;;;;;5065397;28;20133;-64
2021/05/28 05:47:43;;;;;;;0.68;0.52;;;14.50;99.90;;;;;;5064952;28;20031;-64
2021/05/28 05:50:10;;;;;;;0.40;0.40;;;14.50;99.90;;;;;;5065298;28;20032;-64
2021/05/28 05:52:36;;;;;;;0.40;0.40;;;14.50;99.90;;;;;;5064848;28;20518;-64
2021/05/28 05:55:03;;;;;;;0.60;0.50;;;14.50;99.90;;;;;;5064865;28;20323;-64
2021/05/28 05:57:29;;;;;;;0.57;0.50;;;14.60;99.90;;;;;;5063098;28;20020;-64
2021/05/28 05:59:54;;;;;;;0.60;0.60;;;14.50;99.90;;;;;;5064890;28;20035;-64
2021/05/28 06:02:21;;;;;;;0.52;0.52;;;14.70;99.90;;;;;;5064413;28;20118;-64
2021/05/28 06:04:46;;;;;;;0.65;0.60;;;14.70;99.90;;;;;;5064798;28;20573;-64
2021/05/28 06:07:13;;;;;;;1.00;0.70;;;14.60;99.90;;;;;;5065141;28;20087;-64
2021/05/28 06:09:39;;;;;;;0.50;0.50;;;14.50;99.90;;;;;;5064168;28;20037;-64
2021/05/28 06:12:06;;;;;;;0.50;0.50;;;14.60;99.90;;;;;;5065058;28;20109;-64
2021/05/28 06:14:32;;;;;;;0.50;0.50;;;14.60;99.90;;;;;;5064854;28;20561;-64
2021/05/28 06:16:58;;;;;;;0.65;0.60;;;14.60;99.90;;;;;;5064392;28;20028;-65
2021/05/28 06:19:23;;;;;;;1.67;0.40;;;14.70;99.90;;;;;;5063479;28;20040;-64
2021/05/28 06:21:49;;;;;;;0.60;0.60;;;14.80;99.90;;;;;;5064807;28;20028;-64
2021/05/28 06:24:15;;;;;;;0.50;0.50;;;14.80;99.90;;;;;;5063463;28;20435;-64
2021/05/28 06:26:40;;;;;;;0.50;0.50;;;14.80;99.90;;;;;;5064375;28;20051;-65
2021/05/28 06:29:07;;;;;;;0.40;0.40;;;14.90;99.90;;;;;;5064483;28;20070;-65
2021/05/28 06:31:34;;;;;;;0.40;0.40;;;15.00;99.90;;;;;;5064493;28;20040;-65
2021/05/28 06:34:01;;;;;;;0.80;0.60;;;15.10;99.90;;;;;;5063786;28;20103;-64
2021/05/28 06:36:27;;;;;;;0.60;0.50;;;15.00;99.90;;;;;;5064614;28;20079;-65
2021/05/28 06:38:54;;;;;;;0.60;0.43;;;15.10;99.90;;;;;;5064399;28;20032;-64
2021/05/28 06:41:20;;;;;;;0.40;0.40;;;15.10;99.90;;;;;;5064299;28;20048;-64
2021/05/28 06:43:48;;;;;;;0.40;0.35;;;15.00;99.90;;;;;;5064860;28;20036;-64
2021/05/28 06:46:15;;;;;;;0.65;0.60;;;15.10;99.90;;;;;;5063109;28;20410;-64
2021/05/28 06:48:41;;;;;;;0.70;0.50;;;15.20;99.90;;;;;;5064186;28;20035;-64
2021/05/28 06:51:06;;;;;;;2.05;0.50;;;15.30;99.90;;;;;;5064692;28;20465;-64
2021/05/28 06:53:32;;;;;;;0.80;0.57;;;15.30;99.90;;;;;;5064437;28;20081;-64
2021/05/28 06:55:57;;;;;;;0.52;0.35;;;15.20;99.90;;;;;;5064619;28;20082;-64
2021/05/28 06:58:23;;;;;;;1.20;0.50;;;15.30;99.90;;;;;;5065697;28;20051;-64
2021/05/28 07:00:50;;;;;;;0.40;0.40;;;15.40;99.90;;;;;;5064118;28;20090;-64
2021/05/28 07:03:15;;;;;;;1.85;0.30;;;15.50;99.90;;;;;;5063383;28;20037;-64
2021/05/28 07:05:42;;;;;;;0.80;0.70;;;15.40;99.90;;;;;;5064288;28;20713;-64
2021/05/28 07:08:08;;;;;;;0.85;0.52;;;15.30;99.90;;;;;;5063382;28;20032;-64
2021/05/28 07:10:34;;;;;;;0.52;0.40;;;15.50;99.90;;;;;;5062042;28;20021;-64
2021/05/28 07:13:00;;;;;;;0.88;0.60;;;15.70;99.90;;;;;;5064441;28;20037;-64
2021/05/28 07:15:27;;;;;;;0.93;0.80;;;15.80;99.90;;;;;;5060477;28;20028;-64
2021/05/28 07:17:53;;;;;;;2.50;1.70;;;15.60;99.90;;;;;;5064604;28;20029;-64
2021/05/28 07:20:20;;;;;;;2.50;1.17;;;15.70;99.90;;;;;;5064305;28;20031;-64
2021/05/28 07:22:45;;;;;;;1.60;1.23;;;15.70;99.90;;;;;;5062126;28;20038;-64
2021/05/28 07:25:12;;;;;;;1.98;1.27;;;15.70;99.90;;;;;;5064128;28;20455;-65
2021/05/28 07:27:38;;;;;;;1.52;1.10;;;15.80;99.90;;;;;;5063843;28;20024;-65
2021/05/28 07:30:05;;;;;;;1.70;1.40;;;15.90;99.90;;;;;;5061353;28;20035;-65
2021/05/28 07:32:31;;;;;;;5.47;3.55;;;15.90;99.90;;;;;;5062899;28;20043;-64
2021/05/28 07:34:56;;;;;;;2.75;1.92;;;15.80;99.90;;;;;;5063707;28;20506;-66
2021/05/28 07:37:22;;;;;;;3.60;2.17;;;15.70;99.90;;;;;;5064632;28;20029;-65
2021/05/28 07:39:48;;;;;;;2.05;1.40;;;15.80;99.90;;;;;;5063827;28;20103;-65
2021/05/28 07:42:17;;;;;;;2.47;1.27;;;15.80;99.90;;;;;;5063987;28;20078;-66
2021/05/28 07:44:43;;;;;;;2.78;1.30;;;15.80;99.90;;;;;;5062995;28;20036;-66
2021/05/28 07:47:11;;;;;;;0.73;0.73;;;16.00;99.90;;;;;;5066101;28;20577;-65
2021/05/28 07:49:39;;;;;;;0.60;0.60;;;15.80;99.90;;;;;;5065146;28;20029;-65
2021/05/28 07:52:07;;;;;;;1.35;0.60;;;15.90;99.90;;;;;;5055769;28;20024;-65
2021/05/28 07:54:32;;;;;;;1.00;0.90;;;16.10;99.90;;;;;;5066821;28;20029;-65
2021/05/28 07:56:59;;;;;;;1.65;1.00;;;16.20;99.90;;;;;;5067431;28;20027;-64
2021/05/28 07:59:26;;;;;;;0.60;0.60;;;16.30;99.90;;;;;;5061105;28;20028;-65
2021/05/28 08:01:52;;;;;;;0.52;0.52;;;16.30;99.90;;;;;;5066947;28;20032;-64
2021/05/28 08:04:18;;;;;;;0.65;0.50;;;16.30;99.90;;;;;;5067291;28;20028;-64
2021/05/28 08:06:44;;;;;;;0.50;0.50;;;16.30;99.90;;;;;;5067086;28;20024;-65
2021/05/28 08:09:11;;;;;;;1.52;0.70;;;16.30;99.90;;;;;;5066135;28;20335;-64
2021/05/28 08:11:36;;;;;;;0.95;0.60;;;16.40;99.90;;;;;;5066981;28;20120;-65
2021/05/28 08:14:02;;;;;;;0.40;0.40;;;16.40;99.90;;;;;;5065605;28;20166;-65
2021/05/28 08:16:28;;;;;;;0.80;0.43;;;16.50;99.90;;;;;;5066693;28;20032;-64
2021/05/28 08:18:54;;;;;;;1.00;0.50;;;16.40;99.90;;;;;;5062366;28;20077;-65
2021/05/28 08:21:20;;;;;;;0.45;0.40;;;16.50;99.90;;;;;;5057680;28;20024;-65
2021/05/28 08:23:46;;;;;;;0.52;0.50;;;16.60;99.90;;;;;;5067223;28;20029;-65
2021/05/28 08:26:13;;;;;;;0.57;0.40;;;16.70;99.90;;;;;;5067268;28;20022;-65
2021/05/28 08:28:39;;;;;;;0.70;0.50;;;16.90;99.90;;;;;;5066472;28;20415;-65
2021/05/28 08:31:06;;;;;;;0.50;0.50;;;16.80;99.90;;;;;;5066949;28;20029;-65
2021/05/28 08:33:33;;;;;;;0.63;0.40;;;16.80;99.90;;;;;;5065151;28;20036;-64
2021/05/28 08:36:00;;;;;;;0.30;0.30;;;16.90;99.90;;;;;;5065519;28;20024;-65
2021/05/28 08:38:26;;;;;;;0.60;0.50;;;16.90;99.90;;;;;;5067223;28;20028;-65
2021/05/28 08:40:52;;;;;;;0.32;0.32;;;16.80;99.90;;;;;;5067527;28;20528;-65
2021/05/28 08:43:18;;;;;;;0.57;0.30;;;16.90;99.90;;;;;;5066574;28;20055;-65
2021/05/28 08:45:47;;;;;;;0.30;0.30;;;17.00;99.90;;;;;;5066205;28;20099;-64
2021/05/28 08:48:16;;;;;;;0.40;0.30;;;17.00;99.90;;;;;;5064332;28;20036;-65
2021/05/28 08:50:45;;;;;;;0.28;0.28;;;17.10;99.90;;;;;;5064552;28;20493;-65
2021/05/28 08:53:12;;;;;;;0.30;0.30;;;17.30;99.90;;;;;;5065196;28;20478;-65
2021/05/28 08:55:40;;;;;;;0.50;0.38;;;17.20;99.90;;;;;;5065866;28;20108;-65
2021/05/28 08:58:12;;;;;;;0.40;0.30;;;17.30;99.90;;;;;;5065567;28;20059;-65
2021/05/28 09:00:39;;;;;;;0.50;0.50;;;17.30;99.90;;;;;;5065825;28;20421;-65
2021/05/28 09:03:27;;;;;;;0.38;0.38;;;17.20;99.90;;;;;;5066541;28;20530;-65
2021/05/28 09:05:59;;;;;;;0.40;0.40;;;17.50;99.90;;;;;;5066818;28;20066;-65
2021/05/28 09:08:32;;;;;;;0.20;0.20;;;17.60;99.90;;;;;;5058824;28;20025;-65
2021/05/28 09:11:05;;;;;;;0.38;0.30;;;17.60;99.90;;;;;;5045835;28;20494;-65
2021/05/28 09:13:32;;;;;;;0.43;0.38;;;17.80;99.90;;;;;;5045618;28;20071;-65
2021/05/28 09:16:07;;;;;;;0.28;0.28;;;17.80;99.90;;;;;;5045978;28;20053;-65
2021/05/28 09:18:52;;;;;;;0.52;0.35;;;17.80;99.90;;;;;;5045559;28;20519;-65
2021/05/28 09:21:35;;;;;;;0.20;0.20;;;17.80;99.90;;;;;;5046101;28;20029;-65
2021/05/28 09:24:07;;;;;;;1.30;0.40;;;17.80;99.90;;;;;;5045527;28;20409;-65
2021/05/28 09:26:35;;;;;;;0.55;0.47;;;17.90;99.90;;;;;;5045543;28;20439;-65
2021/05/28 09:29:01;;;;;;;0.35;0.35;;;17.80;99.90;;;;;;5045622;28;20059;-66
2021/05/28 09:31:29;;;;;;;0.28;0.28;;;18.10;99.90;;;;;;5052994;28;20436;-66
2021/05/28 09:33:57;;;;;;;0.20;0.20;;;18.10;99.90;;;;;;5065738;28;20047;-65
2021/05/28 09:36:27;;;;;;;0.40;0.30;;;18.20;99.90;;;;;;5066196;28;20034;-65
2021/05/28 09:39:08;;;;;;;0.50;0.43;;;18.00;99.90;;;;;;5065915;28;20054;-65
2021/05/28 09:41:48;;;;;;;0.45;0.30;;;18.20;99.90;;;;;;5076902;28;20066;-65
2021/05/28 09:44:25;;;;;;;0.45;0.43;;;18.10;99.90;;;;;;5083870;28;20104;-64
2021/05/28 09:46:56;;;;;;;0.40;0.40;;;18.20;99.90;;;;;;5065548;28;20024;-65
2021/05/28 09:49:29;;;;;;;0.35;0.30;;;18.30;99.90;;;;;;5066397;28;20410;-64
2021/05/28 09:52:14;;;;;;;0.40;0.40;;;18.30;99.90;;;;;;5062373;28;20367;-63
2021/05/28 09:54:53;;;;;;;0.38;0.38;;;18.30;99.90;;;;;;5064547;28;20129;-63
2021/05/28 09:57:29;;;;;;;0.50;0.50;;;18.30;99.90;;;;;;5066188;28;20035;-63
2021/05/28 09:59:55;;;;;;;0.50;0.50;;;18.40;99.90;;;;;;5066161;28;20025;-63
2021/05/28 10:02:28;;;;;;;0.45;0.45;;;18.30;99.90;;;;;;5064875;28;20059;-63
2021/05/28 10:04:56;;;;;;;0.98;0.30;;;18.40;99.90;;;;;;5066300;28;20027;-63
2021/05/28 10:07:24;;;;;;;0.47;0.47;;;18.30;99.90;;;;;;5064052;28;20082;-63
2021/05/28 10:09:55;;;;;;;0.50;0.50;;;18.50;99.90;;;;;;5064007;28;20115;-63
2021/05/28 10:12:22;;;;;;;0.65;0.50;;;18.80;99.90;;;;;;5064577;28;20467;-64
2021/05/28 10:14:49;;;;;;;0.60;0.40;;;18.90;99.90;;;;;;5064281;28;20099;-63
2021/05/28 10:17:16;;;;;;;0.60;0.50;;;19.00;99.90;;;;;;5064317;28;20028;-63
2021/05/28 10:19:44;;;;;;;0.40;0.40;;;18.80;99.90;;;;;;5062724;28;20472;-64
2021/05/28 10:22:10;;;;;;;0.40;0.40;;;19.00;99.90;;;;;;5061513;28;20020;-64
2021/05/28 10:24:36;;;;;;;1.08;0.50;;;19.10;99.90;;;;;;5063750;28;20391;-64
2021/05/28 10:27:02;;;;;;;1.50;0.57;;;19.10;99.90;;;;;;5063538;28;20106;-64
2021/05/28 10:29:29;;;;;;;0.22;0.22;;;19.10;99.90;;;;;;5063812;28;20522;-64
2021/05/28 10:32:01;;;;;;;0.40;0.32;;;19.30;99.90;;;;;;5064925;28;20025;-64
2021/05/28 10:34:30;;;;;;;1.25;0.40;;;19.40;99.90;;;;;;5064039;28;20480;-64
2021/05/28 10:36:57;;;;;;;0.50;0.50;;;19.50;99.90;;;;;;5062335;28;20028;-64
2021/05/28 10:39:27;;;;;;;1.05;0.40;;;19.50;99.90;;;;;;5064535;28;20025;-64
2021/05/28 10:42:12;;;;;;;0.40;0.40;;;19.60;99.90;;;;;;5064235;28;20023;-64
2021/05/28 10:44:44;;;;;;;0.40;0.40;;;19.80;99.90;;;;;;5060826;28;20035;-64
2021/05/28 10:47:13;;;;;;;0.22;0.22;;;19.80;99.90;;;;;;5060266;28;20402;-64
2021/05/28 10:49:43;;;;;;;0.50;0.50;;;20.00;99.90;;;;;;5060129;28;20039;-63
2021/05/28 10:52:31;;;;;;;0.60;0.45;;;19.90;99.90;;;;;;5063748;28;20025;-63
2021/05/28 10:55:01;;;;;;;0.60;0.50;;;20.00;99.90;;;;;;5062173;28;20127;-63
2021/05/28 10:57:30;;;;;;;0.50;0.43;;;20.20;99.90;;;;;;5059195;28;20032;-63
2021/05/28 11:00:06;;;;;;;0.82;0.50;;;20.10;99.90;;;;;;5063830;28;20020;-63
2021/05/28 11:02:58;;;;;;;0.73;0.40;;;20.10;99.90;;;;;;5063808;28;20085;-63
2021/05/28 11:05:47;;;;;;;0.40;0.40;;;20.20;99.90;;;;;;5064404;28;20567;-63
2021/05/28 11:08:44;;;;;;;0.43;0.40;;;20.50;99.90;;;;;;5063716;28;20028;-63
2021/05/28 11:11:38;;;;;;;0.57;0.52;;;20.50;99.90;;;;;;5063776;28;20028;-63
2021/05/28 11:14:11;;;;;;;0.63;0.40;;;20.50;99.90;;;;;;5063221;28;20047;-63
2021/05/28 11:16:52;;;;;;;0.40;0.40;;;20.60;99.90;;;;;;5063996;28;20025;-63
2021/05/28 11:19:21;;;;;;;0.60;0.50;;;20.30;99.90;;;;;;5061655;28;20036;-63
2021/05/28 11:21:56;;;;;;;0.40;0.40;;;20.30;99.90;;;;;;5065455;28;20036;-63
2021/05/28 11:24:41;;;;;;;1.58;0.70;;;20.70;99.90;;;;;;5069754;28;20035;-65
2021/05/28 11:27:14;;;;;;;0.40;0.40;;;21.00;99.90;;;;;;5049124;28;20021;-63
2021/05/28 11:29:41;;;;;;;0.30;0.30;;;21.10;99.90;;;;;;5056558;28;20036;-65
2021/05/28 11:32:29;;;;;;;0.50;0.50;;;21.20;99.90;;;;;;5067672;28;20021;-65
2021/05/28 11:35:10;;;;;;;0.35;0.35;;;21.50;99.90;;;;;;5067543;28;20407;-65
2021/05/28 11:37:54;;;;;;;0.35;0.35;;;21.70;99.90;;;;;;5065590;28;20393;-65
2021/05/28 11:40:22;;;;;;;1.17;0.50;;;21.90;99.90;;;;;;5067260;28;20119;-65
2021/05/28 11:42:51;;;;;;;0.50;0.50;;;21.80;99.90;;;;;;5066598;28;20283;-64
2021/05/28 11:45:18;;;;;;;0.38;0.38;;;21.90;99.90;;;;;;5067567;28;20031;-64
2021/05/28 11:47:46;;;;;;;0.32;0.32;;;22.20;99.90;;;;;;5066363;28;20047;-65
2021/05/28 11:50:16;;;;;;;0.40;0.40;;;22.20;99.90;;;;;;5067118;28;20039;-65
2021/05/28 11:52:55;;;;;;;0.40;0.40;;;22.10;99.90;;;;;;5066943;28;20107;-64
2021/05/28 11:55:22;;;;;;;0.50;0.50;;;22.30;99.90;;;;;;5057571;28;20407;-64
2021/05/28 11:57:58;;;;;;;0.68;0.68;;;22.20;99.90;;;;;;5064275;28;20559;-64
2021/05/28 12:00:24;;;;;;;0.65;0.50;;;22.50;99.90;;;;;;5055630;28;20102;-64
2021/05/28 12:02:54;;;;;;;0.63;0.45;;;22.80;99.90;;;;;;5067129;28;20085;-63
2021/05/28 12:05:26;;;;;;;1.13;0.65;;;22.90;99.90;;;;;;5066644;28;20031;-64
2021/05/28 12:07:53;;;;;;;0.68;0.68;;;22.70;99.90;;;;;;5067092;28;20046;-64
2021/05/28 12:10:20;;;;;;;0.70;0.50;;;22.70;99.90;;;;;;5066841;28;20060;-64
2021/05/28 12:12:52;;;;;;;0.93;0.47;;;23.00;99.90;;;;;;5066377;28;20403;-64
2021/05/28 12:15:19;;;;;;;0.50;0.50;;;23.40;99.90;;;;;;5066612;28;20576;-64
2021/05/28 12:17:46;;;;;;;0.90;0.52;;;23.50;99.90;;;;;;5066815;28;20028;-64
2021/05/28 12:20:18;;;;;;;1.23;0.50;;;23.40;99.90;;;;;;5066547;28;20129;-64
2021/05/28 12:22:56;;;;;;;0.40;0.40;;;23.70;99.90;;;;;;5065947;28;20053;-64
2021/05/28 12:25:21;;;;;;;0.50;0.43;;;23.90;99.90;;;;;;5067296;28;20162;-63
2021/05/28 12:27:47;;;;;;;1.08;0.57;;;23.70;99.90;;;;;;5065027;28;20107;-64
2021/05/28 12:30:16;;;;;;;0.40;0.40;;;23.50;99.90;;;;;;5066746;28;20025;-65
2021/05/28 12:32:42;;;;;;;0.50;0.50;;;24.00;99.90;;;;;;5064999;28;20127;-63
2021/05/28 12:35:08;;;;;;;0.55;0.47;;;24.00;99.90;;;;;;5066486;28;20116;-65
2021/05/28 12:37:34;;;;;;;0.75;0.60;;;24.10;99.90;;;;;;5065724;28;20021;-65
2021/05/28 12:40:10;;;;;;;0.50;0.50;;;24.00;99.90;;;;;;5065191;28;20622;-64
2021/05/28 12:42:35;;;;;;;1.30;0.90;;;24.20;99.90;;;;;;5055059;28;20005;-64
2021/05/28 12:45:14;;;;;;;0.65;0.60;;;24.60;99.90;;;;;;5065172;28;20410;-63
2021/05/28 12:47:45;;;;;;;0.63;0.60;;;24.80;99.90;;;;;;5065919;28;20092;-64
2021/05/28 12:50:26;;;;;;;1.35;0.80;;;24.60;99.90;;;;;;5065770;28;20112;-64
2021/05/28 12:52:54;;;;;;;1.25;0.60;;;24.50;99.90;;;;;;5066446;28;20548;-64
2021/05/28 12:55:34;;;;;;;0.40;0.40;;;24.90;99.90;;;;;;5066108;28;20063;-64